createdAt,value
2019-06-10T00:00:57.202Z,101392.08
2019-06-10T00:03:31.735Z,101385.80
2019-06-10T00:06:04.117Z,101380.14
2019-06-10T00:08:35.528Z,101380.64
2019-06-10T00:11:07.783Z,101378.41
2019-06-10T00:13:38.771Z,101377.55
2019-06-10T00:16:11.573Z,101376.83
2019-06-10T00:18:45.766Z,101379.53
2019-06-10T00:21:14.981Z,101374.97
2019-06-10T00:23:45.732Z,101377.92
2019-06-10T00:26:16.389Z,101368.31
2019-06-10T00:28:47.096Z,101367.31
2019-06-10T00:31:17.886Z,101368.68
2019-06-10T00:33:48.528Z,101362.87
2019-06-10T00:36:21.391Z,101365.23
2019-06-10T00:38:51.926Z,101361.41
2019-06-10T00:41:22.662Z,101358.06
2019-06-10T00:43:53.304Z,101354.86
2019-06-10T00:46:23.970Z,101357.09
2019-06-10T00:48:54.616Z,101356.21
2019-06-10T00:51:25.331Z,101353.77
2019-06-10T00:53:55.977Z,101355.73
2019-06-10T00:56:26.634Z,101360.42
2019-06-10T00:58:57.179Z,101364.38
2019-06-10T01:01:28.070Z,101358.21
2019-06-10T01:04:01.377Z,101356.23
2019-06-10T01:06:31.943Z,101352.77
2019-06-10T01:09:02.690Z,101347.47
2019-06-10T01:11:34.498Z,101357.84
2019-06-10T01:14:05.365Z,101340.60
2019-06-10T01:16:36.070Z,101348.59
2019-06-10T01:19:07.761Z,101339.59
2019-06-10T01:21:38.481Z,101338.12
2019-06-10T01:24:11.631Z,101328.74
2019-06-10T01:26:41.406Z,101337.02
2019-06-10T01:29:13.945Z,101329.97
2019-06-10T01:31:44.589Z,101327.77
2019-06-10T01:34:15.275Z,101324.70
2019-06-10T01:36:45.911Z,101325.81
2019-06-10T01:39:17.996Z,101323.84
2019-06-10T01:41:51.177Z,101314.71
2019-06-10T01:44:22.336Z,101312.23
2019-06-10T01:46:53.259Z,101305.22
2019-06-10T01:49:23.954Z,101301.16
2019-06-10T01:51:54.685Z,101294.73
2019-06-10T01:54:25.348Z,101290.81
2019-06-10T01:56:56.080Z,101297.83
2019-06-10T01:59:26.809Z,101296.09
2019-06-10T02:02:05.698Z,101294.62
2019-06-10T02:04:36.484Z,101292.02
2019-06-10T02:07:08.615Z,101297.72
2019-06-10T02:09:41.086Z,101292.76
2019-06-10T02:12:15.882Z,101286.38
2019-06-10T02:14:44.886Z,101289.94
2019-06-10T02:17:16.340Z,101287.72
2019-06-10T02:19:48.087Z,101284.02
2019-06-10T02:22:20.559Z,101277.50
2019-06-10T02:24:51.105Z,101272.43
2019-06-10T02:27:23.199Z,101265.80
2019-06-10T02:29:54.386Z,101264.80
2019-06-10T02:32:33.002Z,101251.00
2019-06-10T02:35:08.966Z,101239.86
2019-06-10T02:37:36.932Z,101227.89
2019-06-10T02:40:05.382Z,101213.45
2019-06-10T02:42:37.769Z,101203.00
2019-06-10T02:45:13.781Z,101191.81
2019-06-10T02:47:44.281Z,101187.28
2019-06-10T02:50:19.814Z,101180.17
2019-06-10T02:52:47.623Z,101177.48
2019-06-10T02:55:20.307Z,101166.29
2019-06-10T02:57:53.244Z,101157.93
2019-06-10T03:00:38.532Z,101157.56
2019-06-10T03:02:56.370Z,101147.83
2019-06-10T03:05:35.206Z,101154.00
2019-06-10T03:07:59.502Z,101149.30
2019-06-10T03:10:33.963Z,101150.39
2019-06-10T03:13:03.029Z,101149.42
2019-06-10T03:15:35.449Z,101148.84
2019-06-10T03:18:06.253Z,101142.55
2019-06-10T03:20:37.147Z,101144.12
2019-06-10T03:23:07.795Z,101147.08
2019-06-10T03:25:38.516Z,101147.81
2019-06-10T03:28:09.165Z,101152.19
2019-06-10T03:30:49.582Z,101142.31
2019-06-10T03:33:13.756Z,101139.23
2019-06-10T03:35:44.568Z,101149.31
2019-06-10T03:38:16.177Z,101140.20
2019-06-10T03:40:46.998Z,101135.41
2019-06-10T03:43:20.786Z,101135.91
2019-06-10T03:45:53.120Z,101136.53
2019-06-10T03:48:26.767Z,101124.18
2019-06-10T03:50:57.397Z,101109.43
2019-06-10T03:53:28.550Z,101106.95
2019-06-10T03:56:02.067Z,101110.00
2019-06-10T03:58:34.907Z,101107.78
2019-06-10T04:01:05.845Z,101096.53
2019-06-10T04:03:36.484Z,101101.34
2019-06-10T04:06:07.411Z,101098.47
2019-06-10T04:08:38.041Z,101103.91
2019-06-10T04:11:08.911Z,101091.93
2019-06-10T04:13:39.768Z,101094.34
2019-06-10T04:16:12.779Z,101099.34
2019-06-10T04:18:43.547Z,101097.80
2019-06-10T04:21:14.390Z,101090.58
2019-06-10T04:23:45.200Z,101090.45
2019-06-10T04:26:15.866Z,101094.70
2019-06-10T04:28:46.611Z,101096.40
2019-06-10T04:31:18.189Z,101093.68
2019-06-10T04:33:52.257Z,101096.40
2019-06-10T04:36:24.509Z,101093.05
2019-06-10T04:38:54.882Z,101096.62
2019-06-10T04:41:26.488Z,101095.86
2019-06-10T04:43:57.972Z,101093.02
2019-06-10T04:46:29.613Z,101090.68
2019-06-10T04:49:02.822Z,101089.38
2019-06-10T04:51:33.103Z,101088.75
2019-06-10T04:54:03.873Z,101085.08
2019-06-10T04:56:34.716Z,101080.35
2019-06-10T04:59:05.773Z,101088.63
2019-06-10T05:01:36.842Z,101089.13
2019-06-10T05:04:07.939Z,101096.03
2019-06-10T05:06:38.946Z,101101.18
2019-06-10T05:09:12.215Z,101096.97
2019-06-10T05:11:43.051Z,101104.37
2019-06-10T05:14:14.177Z,101093.45
2019-06-10T05:16:44.924Z,101080.87
2019-06-10T05:19:15.573Z,101081.30
2019-06-10T05:21:46.238Z,101075.30
2019-06-10T05:24:16.990Z,101073.11
2019-06-10T05:26:47.836Z,101069.53
2019-06-10T05:29:20.146Z,101056.83
2019-06-10T05:31:52.272Z,101063.04
2019-06-10T05:34:26.459Z,101053.05
2019-06-10T05:36:56.473Z,101054.49
2019-06-10T05:39:28.724Z,101050.87
2019-06-10T05:41:59.652Z,101053.50
2019-06-10T05:44:33.134Z,101052.86
2019-06-10T05:47:03.638Z,101049.99
2019-06-10T05:49:36.157Z,101040.86
2019-06-10T05:52:07.411Z,101036.39
2019-06-10T05:54:39.227Z,101032.45
2019-06-10T05:57:11.977Z,101031.97
2019-06-10T05:59:43.283Z,101036.44
2019-06-10T06:02:14.022Z,101021.76
2019-06-10T06:04:45.817Z,101025.56
2019-06-10T06:07:16.491Z,101030.55
2019-06-10T06:09:47.230Z,101031.64
2019-06-10T06:12:18.210Z,101026.11
2019-06-10T06:14:49.217Z,101019.66
2019-06-10T06:17:23.451Z,101025.12
2019-06-10T06:19:53.426Z,101019.45
2019-06-10T06:22:25.347Z,101021.56
2019-06-10T06:24:56.571Z,101015.40
2019-06-10T06:27:28.692Z,101011.98
2019-06-10T06:29:59.546Z,101015.56
2019-06-10T06:32:32.811Z,101025.59
2019-06-10T06:35:03.010Z,101027.51
2019-06-10T06:37:36.424Z,101024.97
2019-06-10T06:40:08.055Z,101020.48
2019-06-10T06:42:38.877Z,101006.48
2019-06-10T06:45:12.213Z,101015.92
2019-06-10T06:47:43.729Z,100998.30
2019-06-10T06:50:15.709Z,101004.77
2019-06-10T06:53:18.799Z,100998.96
2019-06-10T06:55:19.322Z,101005.33
2019-06-10T06:57:52.664Z,100989.87
2019-06-10T07:00:43.020Z,100990.91
2019-06-10T07:02:59.294Z,100980.82
2019-06-10T07:05:32.729Z,100988.00
2019-06-10T07:08:05.430Z,100984.02
2019-06-10T07:10:37.390Z,100983.98
2019-06-10T07:13:09.288Z,100978.38
2019-06-10T07:15:47.070Z,100978.53
2019-06-10T07:18:15.560Z,100977.42
2019-06-10T07:20:47.941Z,100981.77
2019-06-10T07:23:22.388Z,100972.86
2019-06-10T07:25:53.206Z,100965.47
2019-06-10T07:28:24.165Z,100968.16
2019-06-10T07:30:55.447Z,100964.94
2019-06-10T07:33:26.709Z,100956.22
2019-06-10T07:35:57.473Z,100953.77
2019-06-10T07:38:28.415Z,100954.50
2019-06-10T07:40:59.328Z,100954.70
2019-06-10T07:43:33.208Z,100956.55
2019-06-10T07:46:03.963Z,100955.26
2019-06-10T07:48:37.197Z,100950.86
2019-06-10T07:51:10.133Z,100959.12
2019-06-10T07:53:46.132Z,100955.43
2019-06-10T07:56:14.876Z,100954.52
2019-06-10T07:58:47.785Z,100954.93
2019-06-10T08:01:19.167Z,100946.59
2019-06-10T08:03:52.404Z,100943.54
2019-06-10T08:06:24.998Z,100953.49
2019-06-10T08:08:56.278Z,100952.34
2019-06-10T08:11:27.233Z,100942.09
2019-06-10T08:13:58.098Z,100928.27
2019-06-10T08:16:28.793Z,100941.02
2019-06-10T08:19:22.092Z,100933.47
2019-06-10T08:21:32.467Z,100924.02
2019-06-10T08:24:03.542Z,100928.23
2019-06-10T08:26:35.365Z,100921.24
2019-06-10T08:29:06.415Z,100923.70
2019-06-10T08:31:37.197Z,100921.11
2019-06-10T08:34:08.081Z,100914.46
2019-06-10T08:36:39.952Z,100915.41
2019-06-10T08:39:15.530Z,100908.41
2019-06-10T08:41:48.664Z,100902.30
2019-06-10T08:44:17.640Z,100906.62
2019-06-10T08:46:49.485Z,100896.34
2019-06-10T08:49:23.688Z,100898.17
2019-06-10T08:51:53.851Z,100888.98
2019-06-10T08:54:24.693Z,100884.36
2019-06-10T08:56:55.609Z,100893.08
2019-06-10T08:59:26.323Z,100884.01
2019-06-10T09:01:58.434Z,100895.38
2019-06-10T09:04:29.662Z,100893.45
2019-06-10T09:07:03.301Z,100889.11
2019-06-10T09:09:33.675Z,100878.55
2019-06-10T09:12:04.721Z,100878.92
2019-06-10T09:14:35.686Z,100879.73
2019-06-10T09:17:06.416Z,100873.19
2019-06-10T09:19:37.249Z,100873.66
2019-06-10T09:22:08.003Z,100876.23
2019-06-10T09:24:39.033Z,100861.70
2019-06-10T09:27:12.981Z,100867.16
2019-06-10T09:29:47.860Z,100864.16
2019-06-10T09:32:16.452Z,100863.45
2019-06-10T09:34:52.276Z,100858.14
2019-06-10T09:37:19.677Z,100859.06
2019-06-10T09:39:56.327Z,100846.20
2019-06-10T09:42:23.987Z,100846.81
2019-06-10T09:44:55.770Z,100845.19
2019-06-10T09:47:28.308Z,100838.22
2019-06-10T09:50:03.036Z,100838.10
2019-06-10T09:52:32.990Z,100841.82
2019-06-10T09:55:05.395Z,100851.14
2019-06-10T09:57:36.369Z,100842.73
2019-06-10T10:00:12.473Z,100842.93
2019-06-10T10:02:47.417Z,100830.69
2019-06-10T10:05:16.539Z,100834.96
2019-06-10T10:07:50.716Z,100835.14
2019-06-10T10:10:24.135Z,100827.03
2019-06-10T10:12:55.815Z,100819.80
2019-06-10T10:15:30.777Z,100826.28
2019-06-10T10:17:59.174Z,100827.17
2019-06-10T10:20:30.445Z,100828.56
2019-06-10T10:23:02.720Z,100815.55
2019-06-10T10:25:33.844Z,100807.06
2019-06-10T10:28:05.605Z,100806.69
2019-06-10T10:30:38.571Z,100804.49
2019-06-10T10:33:09.568Z,100803.91
2019-06-10T10:35:42.661Z,100806.83
2019-06-10T10:38:14.429Z,100797.61
2019-06-10T10:40:47.445Z,100799.22
2019-06-10T10:43:28.859Z,100801.72
2019-06-10T10:45:53.237Z,100791.66
2019-06-10T10:48:23.591Z,100791.88
2019-06-10T10:50:56.098Z,100784.20
2019-06-10T10:53:26.970Z,100790.91
2019-06-10T10:55:57.813Z,100783.80
2019-06-10T10:58:28.620Z,100781.50
2019-06-10T11:00:59.406Z,100774.00
2019-06-10T11:03:30.117Z,100771.08
2019-06-10T11:06:01.281Z,100771.20
2019-06-10T11:08:33.488Z,100771.16
2019-06-10T11:11:05.895Z,100772.32
2019-06-10T11:13:37.413Z,100767.30
2019-06-10T11:16:09.401Z,100771.34
2019-06-10T11:18:42.425Z,100771.58
2019-06-10T11:21:13.512Z,100775.87
2019-06-10T11:23:44.244Z,100765.20
2019-06-10T11:26:15.097Z,100761.73
2019-06-10T11:28:47.455Z,100753.33
2019-06-10T11:31:18.224Z,100762.37
2019-06-10T11:33:48.951Z,100760.91
2019-06-10T11:36:22.581Z,100743.34
2019-06-10T11:38:54.943Z,100745.99
2019-06-10T11:41:25.019Z,100747.86
2019-06-10T11:43:59.033Z,100744.75
2019-06-10T11:46:28.451Z,100741.02
2019-06-10T11:49:00.063Z,100732.56
2019-06-10T11:51:31.087Z,100733.50
2019-06-10T11:54:03.482Z,100734.42
2019-06-10T11:56:34.415Z,100735.84
2019-06-10T11:59:09.443Z,100734.02
2019-06-10T12:01:39.022Z,100737.48
2019-06-10T12:04:12.668Z,100731.80
2019-06-10T12:06:42.977Z,100732.03
2019-06-10T12:09:13.997Z,100731.79
2019-06-10T12:11:45.028Z,100728.39
2019-06-10T12:14:15.812Z,100730.87
2019-06-10T12:19:19.741Z,100720.22
2019-06-10T12:21:55.658Z,100729.38
2019-06-10T12:24:23.286Z,100721.70
2019-06-10T12:26:58.301Z,100717.64
2019-06-10T12:29:27.981Z,100718.16
2019-06-10T12:32:02.824Z,100714.93
2019-06-10T12:34:33.304Z,100703.19
2019-06-10T12:37:11.999Z,100704.98
2019-06-10T12:39:37.597Z,100698.50
2019-06-10T12:42:11.077Z,100697.16
2019-06-10T12:44:42.888Z,100690.73
2019-06-10T12:47:14.215Z,100697.63
2019-06-10T12:49:46.585Z,100693.05
2019-06-10T12:52:17.693Z,100694.22
2019-06-10T12:54:48.620Z,100686.91
2019-06-10T12:57:22.988Z,100696.69
2019-06-10T12:59:54.163Z,100689.55
2019-06-10T13:02:31.170Z,100686.02
2019-06-10T13:04:59.663Z,100676.09
2019-06-10T13:07:32.486Z,100668.28
2019-06-10T13:10:04.136Z,100668.44
2019-06-10T13:12:35.198Z,100671.09
2019-06-10T13:15:10.144Z,100664.34
2019-06-10T13:17:44.091Z,100660.17
2019-06-10T13:20:14.102Z,100653.31
2019-06-10T13:22:45.020Z,100664.97
2019-06-10T13:25:16.104Z,100659.91
2019-06-10T13:27:47.215Z,100665.48
2019-06-10T13:30:18.608Z,100657.45
2019-06-10T13:32:52.701Z,100636.41
2019-06-10T13:35:26.279Z,100647.42
2019-06-10T13:37:57.434Z,100636.30
2019-06-10T13:40:28.382Z,100622.77
2019-06-10T13:42:59.835Z,100617.06
2019-06-10T13:45:33.221Z,100612.50
2019-06-10T13:48:07.898Z,100607.33
2019-06-10T13:50:36.944Z,100604.48
2019-06-10T13:53:09.765Z,100604.98
2019-06-10T13:55:41.492Z,100616.62
2019-06-10T13:58:14.625Z,100615.81
2019-06-10T14:00:47.435Z,100615.25
2019-06-10T14:03:19.690Z,100600.69
2019-06-10T14:05:57.771Z,100587.72
2019-06-10T14:08:24.302Z,100588.91
2019-06-10T14:10:57.082Z,100581.82
2019-06-10T14:13:32.373Z,100575.72
2019-06-10T14:16:03.498Z,100571.89
2019-06-10T14:18:35.324Z,100573.69
2019-06-10T14:21:09.638Z,100574.95
2019-06-10T14:23:39.305Z,100574.09
2019-06-10T14:26:16.683Z,100576.59
2019-06-10T14:28:46.329Z,100567.38
2019-06-10T14:31:38.559Z,100567.84
2019-06-10T14:33:53.255Z,100558.37
2019-06-10T14:36:23.683Z,100556.58
2019-06-10T14:38:54.776Z,100564.97
2019-06-10T14:41:27.375Z,100560.69
2019-06-10T14:43:58.542Z,100559.05
2019-06-10T14:46:32.892Z,100547.58
2019-06-10T14:49:04.670Z,100553.95
2019-06-10T14:51:38.353Z,100555.10
2019-06-10T14:54:09.432Z,100552.83
2019-06-10T14:56:52.981Z,100548.23
2019-06-10T15:03:34.954Z,100531.50
2019-06-10T15:06:07.049Z,100535.47
2019-06-10T15:08:38.415Z,100541.59
2019-06-10T15:11:11.580Z,100526.96
2019-06-10T15:13:43.570Z,100532.38
2019-06-10T15:16:14.839Z,100525.05
2019-06-10T15:18:47.253Z,100514.97
2019-06-10T15:21:19.350Z,100525.11
2019-06-10T15:23:52.337Z,100510.59
2019-06-10T15:26:23.479Z,100517.69
2019-06-10T15:28:55.385Z,100520.46
2019-06-10T15:31:27.400Z,100514.45
2019-06-10T15:33:58.305Z,100511.17
2019-06-10T15:36:29.858Z,100508.47
2019-06-10T15:39:00.815Z,100505.48
2019-06-10T15:41:33.144Z,100505.02
2019-06-10T15:44:04.192Z,100502.14
2019-06-10T15:46:35.213Z,100500.13
2019-06-10T15:49:06.264Z,100492.86
2019-06-10T15:51:37.769Z,100503.81
2019-06-10T15:54:08.809Z,100499.91
2019-06-10T15:56:49.384Z,100494.22
2019-06-10T15:59:13.849Z,100485.17
2019-06-10T16:01:44.913Z,100481.53
2019-06-10T16:04:17.326Z,100484.70
2019-06-10T16:06:48.438Z,100487.20
2019-06-10T16:09:20.309Z,100487.39
2019-06-10T16:11:53.695Z,100483.73
2019-06-10T16:14:25.467Z,100472.49
2019-06-10T16:16:57.522Z,100465.88
2019-06-10T16:19:28.872Z,100472.55
2019-06-10T16:21:59.929Z,100474.02
2019-06-10T16:24:33.252Z,100470.93
2019-06-10T16:27:03.697Z,100471.16
2019-06-10T16:29:34.719Z,100467.67
2019-06-10T16:32:05.995Z,100463.64
2019-06-10T16:34:37.507Z,100469.25
2019-06-10T16:37:08.685Z,100465.69
2019-06-10T16:39:39.892Z,100460.23
2019-06-10T16:42:12.277Z,100456.17
2019-06-10T16:44:43.672Z,100461.41
2019-06-10T16:47:14.633Z,100464.20
2019-06-10T16:49:47.197Z,100470.33
2019-06-10T16:52:19.502Z,100463.18
2019-06-10T16:54:52.597Z,100463.36
2019-06-10T16:57:25.564Z,100452.58
2019-06-10T16:59:59.165Z,100457.44
2019-06-10T17:02:30.083Z,100457.69
2019-06-10T17:05:03.178Z,100460.92
2019-06-10T17:07:33.751Z,100466.94
2019-06-10T17:10:06.970Z,100464.75
2019-06-10T17:12:37.990Z,100463.52
2019-06-10T17:15:13.005Z,100456.89
2019-06-10T17:17:44.550Z,100452.80
2019-06-10T17:20:15.588Z,100455.18
2019-06-10T17:22:46.624Z,100454.85
2019-06-10T17:25:19.064Z,100446.92
2019-06-10T17:27:50.058Z,100450.78
2019-06-10T17:30:23.948Z,100452.90
2019-06-10T17:32:55.093Z,100447.27
2019-06-10T17:35:28.599Z,100447.66
2019-06-10T17:38:00.053Z,100448.16
2019-06-10T17:40:33.604Z,100446.49
2019-06-10T17:43:03.658Z,100437.09
2019-06-10T17:45:35.011Z,100439.72
2019-06-10T17:48:05.856Z,100431.98
2019-06-10T17:50:39.348Z,100434.59
2019-06-10T17:53:12.706Z,100437.05
2019-06-10T17:55:43.954Z,100441.42
2019-06-10T17:58:14.894Z,100432.13
2019-06-10T18:00:46.012Z,100433.31
2019-06-10T18:03:17.012Z,100431.41
2019-06-10T18:05:48.586Z,100433.02
2019-06-10T18:08:19.620Z,100431.77
2019-06-10T18:10:53.280Z,100422.45
2019-06-10T18:13:24.628Z,100429.14
2019-06-10T18:15:55.559Z,100424.00
2019-06-10T18:18:26.498Z,100435.55
2019-06-10T18:20:57.793Z,100430.14
2019-06-10T18:23:29.099Z,100435.00
2019-06-10T18:26:00.259Z,100439.11
2019-06-10T18:28:32.151Z,100443.18
2019-06-10T18:31:04.110Z,100440.27
2019-06-10T18:33:38.004Z,100438.66
2019-06-10T18:36:12.063Z,100439.03
2019-06-10T18:38:43.373Z,100447.88
2019-06-10T18:41:14.404Z,100451.86
2019-06-10T18:43:45.457Z,100460.04
2019-06-10T18:46:17.311Z,100455.42
2019-06-10T18:48:48.672Z,100455.05
2019-06-10T18:51:19.768Z,100456.58
2019-06-10T18:53:54.222Z,100458.97
2019-06-10T18:56:25.169Z,100454.89
2019-06-10T18:58:56.176Z,100458.73
2019-06-10T19:01:28.251Z,100465.62
2019-06-10T19:03:59.476Z,100461.33
2019-06-10T19:06:33.349Z,100460.84
2019-06-10T19:09:03.851Z,100464.13
2019-06-10T19:11:37.227Z,100461.20
2019-06-10T19:14:09.239Z,100460.98
2019-06-10T19:16:40.238Z,100457.65
2019-06-10T19:19:12.650Z,100455.84
2019-06-10T19:21:44.405Z,100449.88
2019-06-10T19:24:16.195Z,100448.14
2019-06-10T19:26:47.181Z,100459.17
2019-06-10T19:29:30.807Z,100455.17
2019-06-10T19:31:52.597Z,100452.32
2019-06-10T19:34:24.125Z,100456.36
2019-06-10T19:36:55.073Z,100451.75
2019-06-10T19:39:26.050Z,100457.47
2019-06-10T19:41:58.305Z,100458.09
2019-06-10T19:44:29.074Z,100451.21
2019-06-10T19:47:02.494Z,100456.47
2019-06-10T19:49:34.155Z,100458.08
2019-06-10T19:52:07.284Z,100455.11
2019-06-10T19:54:39.088Z,100450.73
2019-06-10T19:57:12.835Z,100455.91
2019-06-10T20:00:03.538Z,100455.95
2019-06-10T20:02:17.975Z,100457.05
2019-06-10T20:04:48.797Z,100460.20
2019-06-10T20:07:22.828Z,100451.76
2019-06-10T20:09:53.929Z,100454.73
2019-06-10T20:12:24.705Z,100458.21
2019-06-10T20:14:56.941Z,100462.03
2019-06-10T20:17:28.206Z,100456.95
2019-06-10T20:20:02.512Z,100455.81
2019-06-10T20:22:33.871Z,100444.88
2019-06-10T20:25:06.384Z,100441.08
2019-06-10T20:27:37.561Z,100442.22
2019-06-10T20:30:24.206Z,100440.41
2019-06-10T20:32:47.848Z,100440.07
2019-06-10T20:35:16.681Z,100443.16
2019-06-10T20:37:48.111Z,100440.91
2019-06-10T20:40:20.064Z,100445.00
2019-06-10T20:42:52.771Z,100446.36
2019-06-10T20:45:23.976Z,100446.04
2019-06-10T20:47:55.453Z,100453.72
2019-06-10T20:50:26.549Z,100457.81
2019-06-10T20:53:10.983Z,100450.98
2019-06-10T20:55:41.117Z,100452.20
2019-06-10T20:58:07.222Z,100457.87
2019-06-10T21:00:44.127Z,100453.98
2019-06-10T21:03:13.356Z,100465.89
2019-06-10T21:05:47.747Z,100467.41
2019-06-10T21:08:19.669Z,100471.98
2019-06-10T21:10:51.944Z,100476.77
2019-06-10T21:13:23.733Z,100471.64
2019-06-10T21:15:55.556Z,100469.79
2019-06-10T21:18:27.726Z,100460.92
2019-06-10T21:20:58.849Z,100457.31
2019-06-10T21:23:29.786Z,100458.48
2019-06-10T21:26:03.154Z,100465.39
2019-06-10T21:28:34.476Z,100468.39
2019-06-10T21:31:05.409Z,100472.60
2019-06-10T21:33:36.373Z,100468.78
2019-06-10T21:36:07.589Z,100459.38
2019-06-10T21:38:38.438Z,100461.61
2019-06-10T21:41:09.287Z,100469.34
2019-06-10T21:43:42.527Z,100467.51
2019-06-10T21:46:13.311Z,100461.25
2019-06-10T21:48:46.122Z,100457.08
2019-06-10T21:51:17.439Z,100456.99
2019-06-10T21:53:48.668Z,100459.15
2019-06-10T21:56:22.310Z,100450.30
2019-06-10T21:58:54.133Z,100446.19
2019-06-10T22:01:25.896Z,100441.64
2019-06-10T22:04:00.637Z,100441.95
2019-06-10T22:06:29.733Z,100444.28
2019-06-10T22:09:04.031Z,100445.65
2019-06-10T22:11:35.599Z,100435.61
2019-06-10T22:14:06.597Z,100442.59
2019-06-10T22:16:37.619Z,100441.72
2019-06-10T22:19:08.519Z,100446.28
2019-06-10T22:21:39.558Z,100454.80
2019-06-10T22:24:12.436Z,100461.33
2019-06-10T22:26:42.986Z,100467.34
2019-06-10T22:29:13.958Z,100466.51
2019-06-10T22:31:45.245Z,100472.56
2019-06-10T22:34:15.989Z,100476.52
2019-06-10T22:36:47.574Z,100484.69
2019-06-10T22:39:18.340Z,100485.38
2019-06-10T22:41:54.117Z,100493.00
2019-06-10T22:44:24.616Z,100492.35
2019-06-10T22:46:57.027Z,100496.25
2019-06-10T22:49:28.589Z,100500.65
2019-06-10T22:52:00.467Z,100499.61
2019-06-10T22:54:32.412Z,100498.91
2019-06-10T22:57:04.228Z,100498.06
2019-06-10T22:59:36.288Z,100503.72
2019-06-10T23:02:07.291Z,100502.35
2019-06-10T23:04:38.258Z,100497.58
2019-06-10T23:07:09.240Z,100496.83
2019-06-10T23:09:42.695Z,100492.59
2019-06-10T23:12:14.276Z,100494.83
2019-06-10T23:14:45.717Z,100486.02
2019-06-10T23:17:16.437Z,100474.81
2019-06-10T23:19:49.207Z,100463.94
2019-06-10T23:22:21.998Z,100455.12
2019-06-10T23:24:53.578Z,100447.64
2019-06-10T23:27:24.868Z,100456.31
2019-06-10T23:29:57.552Z,100452.52
2019-06-10T23:32:28.824Z,100440.01
2019-06-10T23:35:01.092Z,100438.09
2019-06-10T23:37:32.427Z,100433.64
2019-06-10T23:40:04.805Z,100432.71
2019-06-10T23:42:35.417Z,100436.34
2019-06-10T23:45:07.504Z,100441.30
2019-06-10T23:47:38.231Z,100447.62
2019-06-10T23:50:09.257Z,100458.53
2019-06-10T23:52:39.931Z,100449.70
2019-06-10T23:55:13.095Z,100453.09
2019-06-10T23:57:44.223Z,100454.78
